createdAt,value
2022-10-15T00:01:11.210Z,2.30
2022-10-15T00:03:39.446Z,2.30
2022-10-15T00:06:08.007Z,1.38
2022-10-15T00:08:35.053Z,2.65
2022-10-15T00:11:13.349Z,2.78
2022-10-15T00:13:40.367Z,3.00
2022-10-15T00:16:12.351Z,2.03
2022-10-15T00:18:40.018Z,2.42
2022-10-15T00:21:11.467Z,1.75
2022-10-15T00:23:38.250Z,2.38
2022-10-15T00:26:10.564Z,1.85
2022-10-15T00:28:37.398Z,2.10
2022-10-15T00:31:09.506Z,2.67
2022-10-15T00:33:36.649Z,2.40
2022-10-15T00:36:10.939Z,3.17
2022-10-15T00:38:37.940Z,1.98
2022-10-15T00:41:06.191Z,2.35
2022-10-15T00:43:46.369Z,2.55
2022-10-15T00:46:24.459Z,2.20
2022-10-15T00:49:01.204Z,2.08
2022-10-15T00:51:38.836Z,2.60
2022-10-15T00:54:05.855Z,2.47
2022-10-15T00:56:33.587Z,2.40
2022-10-15T00:59:00.595Z,2.45
2022-10-15T01:01:27.420Z,2.45
2022-10-15T01:03:55.852Z,2.75
2022-10-15T01:06:22.916Z,2.78
2022-10-15T01:08:49.609Z,2.72
2022-10-15T01:11:52.342Z,2.75
2022-10-15T01:14:31.664Z,2.88
2022-10-15T01:16:58.242Z,3.45
2022-10-15T01:19:47.390Z,2.65
2022-10-15T01:22:46.327Z,2.40
2022-10-15T01:25:41.510Z,2.83
2022-10-15T01:28:38.067Z,3.05
2022-10-15T01:31:29.766Z,2.92
2022-10-15T01:36:52.989Z,5.45
2022-10-15T01:39:28.059Z,2.80
2022-10-15T01:41:57.964Z,3.38
2022-10-15T01:44:39.059Z,2.47
2022-10-15T01:47:08.998Z,2.40
2022-10-15T01:49:39.531Z,2.72
2022-10-15T01:52:13.333Z,3.40
2022-10-15T01:54:40.793Z,3.25
2022-10-15T01:57:08.198Z,3.33
2022-10-15T01:59:35.144Z,3.60
2022-10-15T02:02:01.918Z,4.22
2022-10-15T02:04:30.420Z,3.25
2022-10-15T02:07:07.773Z,3.53
2022-10-15T02:09:43.083Z,2.13
2022-10-15T02:12:18.599Z,3.05
2022-10-15T02:15:10.982Z,4.03
2022-10-15T02:17:43.498Z,2.33
2022-10-15T02:20:23.201Z,3.55
2022-10-15T02:22:56.846Z,3.25
2022-10-15T02:25:24.793Z,4.10
2022-10-15T02:27:53.059Z,2.80
2022-10-15T02:30:20.213Z,3.25
2022-10-15T02:32:50.644Z,4.57
2022-10-15T02:35:17.333Z,3.88
2022-10-15T02:37:47.194Z,3.83
2022-10-15T02:40:13.948Z,3.00
2022-10-15T02:42:40.730Z,3.80
2022-10-15T02:45:08.049Z,4.00
2022-10-15T02:47:34.846Z,3.28
2022-10-15T02:50:01.672Z,3.72
2022-10-15T02:52:28.288Z,4.57
2022-10-15T02:54:54.934Z,4.63
2022-10-15T02:57:21.959Z,4.10
2022-10-15T02:59:48.802Z,3.95
2022-10-15T03:02:18.497Z,4.43
2022-10-15T03:04:46.156Z,4.43
2022-10-15T03:07:12.824Z,4.40
2022-10-15T03:09:39.516Z,4.47
2022-10-15T03:12:06.436Z,5.32
2022-10-15T03:14:33.080Z,5.65
2022-10-15T03:16:59.704Z,4.72
2022-10-15T03:19:26.386Z,5.97
2022-10-15T03:21:53.000Z,5.40
2022-10-15T03:24:19.636Z,5.00
2022-10-15T03:26:46.348Z,5.13
2022-10-15T03:29:13.063Z,4.50
2022-10-15T03:31:39.752Z,4.57
2022-10-15T03:34:06.470Z,5.32
2022-10-15T03:36:33.165Z,5.50
2022-10-15T03:38:59.797Z,5.60
2022-10-15T03:41:26.794Z,5.22
2022-10-15T03:43:53.449Z,5.82
2022-10-15T03:46:20.133Z,5.30
2022-10-15T03:48:50.674Z,5.68
2022-10-15T03:51:21.986Z,6.43
2022-10-15T03:53:51.354Z,5.05
2022-10-15T03:56:17.971Z,7.20
2022-10-15T03:58:44.670Z,5.68
2022-10-15T04:01:12.948Z,7.20
2022-10-15T04:03:40.250Z,5.93
2022-10-15T04:06:07.220Z,6.00
2022-10-15T04:08:34.104Z,6.20
2022-10-15T04:11:00.918Z,6.32
2022-10-15T04:13:28.491Z,6.45
2022-10-15T04:15:55.265Z,6.00
2022-10-15T04:18:22.324Z,5.85
2022-10-15T04:20:49.397Z,6.30
2022-10-15T04:23:16.954Z,8.52
2022-10-15T04:25:43.854Z,8.05
2022-10-15T04:28:10.494Z,7.25
2022-10-15T04:30:37.193Z,8.20
2022-10-15T04:33:03.934Z,7.95
2022-10-15T04:35:30.773Z,7.82
2022-10-15T04:37:59.602Z,8.07
2022-10-15T04:40:26.694Z,8.65
2022-10-15T04:42:53.372Z,8.82
2022-10-15T04:45:20.298Z,7.90
2022-10-15T04:47:47.016Z,8.88
2022-10-15T04:50:13.646Z,6.40
2022-10-15T04:52:40.546Z,8.05
2022-10-15T04:55:07.578Z,7.43
2022-10-15T04:57:34.281Z,7.97
2022-10-15T05:00:00.904Z,6.95
2022-10-15T05:02:28.169Z,7.15
2022-10-15T05:04:54.865Z,7.60
2022-10-15T05:07:21.956Z,7.10
2022-10-15T05:09:48.771Z,7.28
2022-10-15T05:12:15.470Z,7.75
2022-10-15T05:14:42.097Z,6.65
2022-10-15T05:17:08.750Z,6.97
2022-10-15T05:19:35.427Z,8.20
2022-10-15T05:22:02.064Z,7.78
2022-10-15T05:24:28.731Z,7.03
2022-10-15T05:26:55.372Z,5.57
2022-10-15T05:29:22.006Z,5.00
2022-10-15T05:31:50.831Z,5.35
2022-10-15T05:34:17.511Z,6.15
2022-10-15T05:39:28.554Z,7.70
2022-10-15T05:41:55.297Z,7.40
2022-10-15T05:44:21.946Z,6.38
2022-10-15T05:46:48.564Z,7.25
2022-10-15T05:49:15.366Z,5.90
2022-10-15T05:51:42.034Z,5.03
2022-10-15T05:54:08.730Z,6.22
2022-10-15T05:56:35.440Z,6.78
2022-10-15T05:59:03.310Z,6.60
2022-10-15T06:01:31.345Z,6.18
2022-10-15T06:03:58.009Z,5.38
2022-10-15T06:06:29.024Z,4.97
2022-10-15T06:08:55.904Z,5.40
2022-10-15T06:11:22.659Z,5.20
2022-10-15T06:13:49.366Z,6.72
2022-10-15T06:16:20.886Z,5.43
2022-10-15T06:18:52.485Z,5.43
2022-10-15T06:21:19.273Z,5.88
2022-10-15T06:23:45.900Z,4.30
2022-10-15T06:26:12.722Z,5.00
2022-10-15T06:28:40.079Z,5.13
2022-10-15T06:31:07.410Z,4.85
2022-10-15T06:33:34.622Z,4.85
2022-10-15T06:36:03.149Z,3.70
2022-10-15T06:38:29.824Z,5.88
2022-10-15T06:40:56.478Z,6.47
2022-10-15T06:43:23.761Z,6.75
2022-10-15T06:45:50.688Z,4.15
2022-10-15T06:48:18.146Z,5.07
2022-10-15T06:50:44.803Z,5.43
2022-10-15T06:53:11.466Z,4.18
2022-10-15T06:55:39.637Z,5.03
2022-10-15T06:58:06.353Z,5.35
2022-10-15T07:00:33.126Z,5.20
2022-10-15T07:03:07.253Z,4.93
2022-10-15T07:05:34.540Z,3.30
2022-10-15T07:08:01.555Z,4.20
2022-10-15T07:10:29.030Z,4.55
2022-10-15T07:12:55.777Z,4.38
2022-10-15T07:15:22.550Z,5.50
2022-10-15T07:17:56.657Z,4.50
2022-10-15T07:20:24.511Z,4.78
2022-10-15T07:22:52.286Z,4.40
2022-10-15T07:25:18.975Z,3.72
2022-10-15T07:27:45.665Z,5.80
2022-10-15T07:30:12.343Z,5.38
2022-10-15T07:32:39.105Z,4.47
2022-10-15T07:35:06.148Z,4.35
2022-10-15T07:37:33.198Z,5.15
2022-10-15T07:39:59.929Z,6.68
2022-10-15T07:42:26.802Z,5.38
2022-10-15T07:44:53.569Z,6.10
2022-10-15T07:47:20.253Z,4.60
2022-10-15T07:49:46.972Z,5.57
2022-10-15T07:52:13.601Z,4.15
2022-10-15T07:54:40.273Z,4.93
2022-10-15T07:57:10.095Z,5.00
2022-10-15T07:59:36.789Z,4.70
2022-10-15T08:02:03.474Z,4.45
2022-10-15T08:04:30.252Z,4.32
2022-10-15T08:06:58.359Z,5.13
2022-10-15T08:09:25.117Z,4.05
2022-10-15T08:11:51.754Z,3.58
2022-10-15T08:14:18.394Z,3.80
2022-10-15T08:16:45.038Z,5.25
2022-10-15T08:19:11.661Z,6.70
2022-10-15T08:21:38.359Z,6.47
2022-10-15T08:24:05.993Z,8.05
2022-10-15T08:26:32.682Z,10.20
2022-10-15T08:28:59.510Z,10.10
2022-10-15T08:31:26.306Z,10.50
2022-10-15T08:33:54.399Z,9.82
2022-10-15T08:36:21.224Z,9.25
2022-10-15T08:38:47.892Z,7.82
2022-10-15T08:41:32.601Z,7.30
2022-10-15T08:43:59.865Z,7.00
2022-10-15T08:46:31.058Z,6.90
2022-10-15T08:49:00.044Z,6.05
2022-10-15T08:53:58.477Z,5.30
2022-10-15T08:56:30.450Z,4.95
2022-10-15T08:59:15.411Z,4.70
2022-10-15T09:01:52.875Z,4.82
2022-10-15T09:04:53.006Z,4.07
2022-10-15T09:07:35.184Z,3.30
2022-10-15T09:10:10.504Z,3.20
2022-10-15T09:12:57.054Z,2.72
2022-10-15T09:15:27.746Z,2.65
2022-10-15T09:17:54.928Z,2.88
2022-10-15T09:20:26.873Z,3.45
2022-10-15T09:22:53.746Z,2.70
2022-10-15T09:25:23.045Z,3.20
2022-10-15T09:27:52.304Z,2.92
2022-10-15T09:30:46.363Z,2.40
2022-10-15T09:33:32.236Z,2.60
2022-10-15T09:36:07.909Z,2.22
2022-10-15T09:38:46.604Z,2.17
2022-10-15T09:41:56.489Z,2.58
2022-10-15T09:44:25.596Z,2.67
2022-10-15T09:46:52.464Z,3.60
2022-10-15T09:49:31.350Z,2.28
2022-10-15T09:52:11.879Z,2.60
2022-10-15T09:54:49.272Z,2.97
2022-10-15T09:57:17.585Z,2.47
2022-10-15T10:00:00.816Z,3.03
2022-10-15T10:02:28.293Z,2.67
2022-10-15T10:04:56.134Z,2.05
2022-10-15T10:07:37.683Z,2.70
2022-10-15T10:10:07.024Z,2.10
2022-10-15T10:12:37.595Z,2.22
2022-10-15T10:15:26.727Z,2.00
2022-10-15T10:17:54.457Z,2.78
2022-10-15T10:20:23.248Z,2.67
2022-10-15T10:22:53.777Z,3.75
2022-10-15T10:25:26.490Z,3.30
2022-10-15T10:28:04.460Z,4.03
2022-10-15T10:30:37.020Z,2.95
2022-10-15T10:33:04.057Z,2.30
2022-10-15T10:35:44.055Z,2.63
2022-10-15T10:38:25.747Z,2.75
2022-10-15T10:40:55.467Z,2.50
2022-10-15T10:43:24.954Z,2.38
2022-10-15T10:45:54.982Z,2.58
2022-10-15T10:48:39.131Z,3.42
2022-10-15T10:51:16.653Z,2.83
2022-10-15T10:53:59.640Z,2.33
2022-10-15T10:56:37.744Z,2.47
2022-10-15T10:59:14.286Z,2.67
2022-10-15T11:01:40.954Z,2.40
2022-10-15T11:04:16.971Z,2.28
2022-10-15T11:06:54.929Z,2.40
2022-10-15T11:09:55.394Z,2.45
2022-10-15T11:12:37.893Z,2.72
2022-10-15T11:15:29.201Z,2.50
2022-10-15T11:18:04.877Z,2.63
2022-10-15T11:21:06.762Z,2.65
2022-10-15T11:24:01.681Z,2.80
2022-10-15T11:27:22.344Z,2.72
2022-10-15T11:30:14.009Z,3.30
2022-10-15T11:33:05.746Z,2.15
2022-10-15T11:35:52.487Z,2.17
2022-10-15T11:38:29.654Z,2.13
2022-10-15T11:41:30.310Z,2.30
2022-10-15T11:44:21.369Z,1.98
2022-10-15T11:47:04.037Z,2.25
2022-10-15T11:49:54.388Z,1.88
2022-10-15T11:52:42.525Z,2.55
2022-10-15T11:55:21.781Z,2.55
2022-10-15T11:57:50.966Z,2.85
2022-10-15T12:00:41.302Z,2.42
2022-10-15T12:03:15.808Z,2.35
2022-10-15T12:05:50.741Z,3.20
2022-10-15T12:08:18.104Z,3.00
2022-10-15T12:11:10.390Z,3.00
2022-10-15T12:13:43.016Z,29.17
2022-10-15T12:16:19.668Z,3.58
2022-10-15T12:18:52.469Z,2.85
2022-10-15T12:21:40.770Z,3.47
2022-10-15T12:24:44.631Z,3.38
2022-10-15T12:27:20.405Z,3.63
2022-10-15T12:29:52.794Z,3.05
2022-10-15T12:32:38.416Z,2.53
2022-10-15T12:35:07.511Z,2.53
2022-10-15T12:37:36.111Z,2.95
2022-10-15T12:40:24.679Z,2.25
2022-10-15T12:42:56.049Z,2.20
2022-10-15T12:45:25.327Z,2.83
2022-10-15T12:48:03.879Z,2.65
2022-10-15T12:50:35.297Z,2.58
2022-10-15T12:53:09.357Z,2.78
2022-10-15T12:55:38.245Z,2.75
2022-10-15T12:58:45.016Z,3.83
2022-10-15T13:01:14.634Z,2.88
2022-10-15T13:03:44.345Z,2.90
2022-10-15T13:06:20.497Z,3.45
2022-10-15T13:08:54.921Z,3.22
2022-10-15T13:11:30.361Z,4.07
2022-10-15T13:14:25.239Z,3.53
2022-10-15T13:16:51.947Z,3.50
2022-10-15T13:19:30.874Z,3.17
2022-10-15T13:22:02.864Z,4.28
2022-10-15T13:24:38.476Z,3.53
2022-10-15T13:27:15.403Z,3.58
2022-10-15T13:29:57.230Z,3.55
2022-10-15T13:32:26.262Z,3.20
2022-10-15T13:34:53.811Z,3.28
2022-10-15T13:37:26.991Z,3.88
2022-10-15T13:39:53.763Z,3.65
2022-10-15T13:42:23.388Z,2.80
2022-10-15T13:45:03.238Z,2.53
2022-10-15T13:47:34.459Z,3.40
2022-10-15T13:50:13.015Z,3.20
2022-10-15T13:53:05.738Z,2.53
2022-10-15T13:55:36.511Z,2.70
2022-10-15T13:58:07.509Z,3.38
2022-10-15T14:00:36.363Z,3.65
2022-10-15T14:03:26.150Z,2.67
2022-10-15T14:05:54.029Z,2.58
2022-10-15T14:08:29.134Z,2.60
2022-10-15T14:10:58.716Z,5.00
2022-10-15T14:13:27.036Z,2.90
2022-10-15T14:16:14.493Z,3.00
2022-10-15T14:18:48.225Z,3.05
2022-10-15T14:21:18.811Z,2.45
2022-10-15T14:23:47.067Z,2.70
2022-10-15T14:26:15.299Z,2.40
2022-10-15T14:28:43.387Z,3.50
2022-10-15T14:31:29.594Z,3.28
2022-10-15T14:33:56.274Z,3.35
2022-10-15T14:36:25.859Z,3.85
2022-10-15T14:38:53.740Z,4.68
2022-10-15T14:41:25.817Z,2.90
2022-10-15T14:44:04.118Z,2.83
2022-10-15T14:46:37.916Z,2.83
2022-10-15T14:49:04.925Z,2.95
2022-10-15T14:51:31.639Z,2.78
2022-10-15T14:53:58.915Z,2.70
2022-10-15T14:56:30.987Z,2.83
2022-10-15T14:58:58.300Z,3.58
2022-10-15T15:01:27.749Z,3.53
2022-10-15T15:03:56.065Z,4.10
2022-10-15T15:06:23.237Z,3.83
2022-10-15T15:08:50.035Z,4.07
2022-10-15T15:11:20.254Z,4.03
2022-10-15T15:13:47.813Z,3.35
2022-10-15T15:16:16.335Z,3.70
2022-10-15T15:18:44.075Z,3.67
2022-10-15T15:21:18.011Z,3.80
2022-10-15T15:23:44.678Z,4.10
2022-10-15T15:26:11.608Z,5.00
2022-10-15T15:28:38.327Z,3.95
2022-10-15T15:31:07.714Z,4.30
2022-10-15T15:33:34.849Z,3.42
2022-10-15T15:36:01.421Z,4.57
2022-10-15T15:38:31.388Z,4.45
2022-10-15T15:41:11.532Z,5.18
2022-10-15T15:43:38.240Z,6.03
2022-10-15T15:46:04.959Z,4.70
2022-10-15T15:48:32.030Z,5.40
2022-10-15T15:51:06.262Z,4.20
2022-10-15T15:53:33.424Z,3.92
2022-10-15T15:56:00.033Z,3.42
2022-10-15T15:58:26.702Z,3.03
2022-10-15T16:00:53.359Z,5.03
2022-10-15T16:03:20.052Z,2.83
2022-10-15T16:05:47.292Z,3.95
2022-10-15T16:08:14.006Z,4.65
2022-10-15T16:10:40.753Z,3.78
2022-10-15T16:13:07.426Z,4.00
2022-10-15T16:15:34.068Z,3.20
2022-10-15T16:18:00.770Z,2.97
2022-10-15T16:20:27.495Z,3.47
2022-10-15T16:22:54.544Z,2.90
2022-10-15T16:25:22.524Z,3.10
2022-10-15T16:27:51.995Z,3.35
2022-10-15T16:30:19.431Z,3.00
2022-10-15T16:32:46.289Z,5.38
2022-10-15T16:35:12.951Z,4.05
2022-10-15T16:37:39.680Z,2.72
2022-10-15T16:40:07.066Z,3.08
2022-10-15T16:42:33.696Z,3.03
2022-10-15T16:45:00.341Z,3.45
2022-10-15T16:47:27.398Z,3.97
2022-10-15T16:49:55.561Z,4.93
2022-10-15T16:52:22.508Z,3.80
2022-10-15T16:54:49.451Z,3.00
2022-10-15T16:57:16.137Z,2.80
2022-10-15T16:59:42.834Z,3.00
2022-10-15T17:02:10.077Z,2.58
2022-10-15T17:04:36.734Z,3.00
2022-10-15T17:07:03.478Z,2.70
2022-10-15T17:09:31.193Z,3.75
2022-10-15T17:11:57.839Z,3.22
2022-10-15T17:14:24.470Z,3.08
2022-10-15T17:16:52.638Z,2.75
2022-10-15T17:19:21.958Z,4.45
2022-10-15T17:21:48.586Z,3.88
2022-10-15T17:24:16.736Z,3.85
2022-10-15T17:26:44.429Z,3.92
2022-10-15T17:29:14.064Z,3.25
2022-10-15T17:31:40.725Z,3.50
2022-10-15T17:34:09.494Z,2.97
2022-10-15T17:36:42.584Z,3.05
2022-10-15T17:39:09.947Z,4.53
2022-10-15T17:41:36.599Z,3.05
2022-10-15T17:44:03.780Z,2.50
2022-10-15T17:46:31.084Z,2.30
2022-10-15T17:48:58.803Z,3.30
2022-10-15T17:51:29.410Z,3.67
2022-10-15T17:53:56.812Z,2.70
2022-10-15T17:56:26.098Z,2.88
2022-10-15T17:58:52.968Z,2.75
2022-10-15T18:01:33.362Z,2.55
2022-10-15T18:04:06.733Z,3.13
2022-10-15T18:06:33.411Z,2.75
2022-10-15T18:09:00.444Z,2.72
2022-10-15T18:11:29.998Z,3.70
2022-10-15T18:13:56.722Z,4.30
2022-10-15T18:16:23.509Z,2.42
2022-10-15T18:18:50.595Z,2.85
2022-10-15T18:21:18.489Z,2.85
2022-10-15T18:23:46.753Z,2.40
2022-10-15T18:26:20.045Z,2.33
2022-10-15T18:28:48.513Z,2.60
2022-10-15T18:31:15.701Z,4.90
2022-10-15T18:33:44.096Z,2.72
2022-10-15T18:36:14.296Z,4.05
2022-10-15T18:38:43.441Z,3.80
2022-10-15T18:43:40.656Z,3.00
2022-10-15T18:46:07.373Z,3.55
2022-10-15T18:48:34.036Z,4.30
2022-10-15T18:51:01.449Z,2.60
2022-10-15T18:53:28.586Z,2.70
2022-10-15T18:55:55.317Z,2.90
2022-10-15T18:58:21.938Z,3.90
2022-10-15T19:00:48.601Z,2.63
2022-10-15T19:03:15.268Z,3.92
2022-10-15T19:05:43.370Z,3.15
2022-10-15T19:08:10.076Z,2.83
2022-10-15T19:10:36.773Z,2.63
2022-10-15T19:13:03.406Z,2.90
2022-10-15T19:15:30.146Z,2.90
2022-10-15T19:17:57.023Z,3.10
2022-10-15T19:20:24.124Z,3.47
2022-10-15T19:22:50.775Z,2.92
2022-10-15T19:25:17.524Z,3.88
2022-10-15T19:27:44.226Z,3.13
2022-10-15T19:30:14.873Z,3.75
2022-10-15T19:32:41.489Z,3.45
2022-10-15T19:35:08.758Z,3.33
2022-10-15T19:37:35.790Z,3.65
2022-10-15T19:40:02.440Z,3.00
2022-10-15T19:42:30.457Z,3.65
2022-10-15T19:44:57.133Z,3.00
2022-10-15T19:47:23.972Z,3.13
2022-10-15T19:49:51.026Z,2.97
2022-10-15T19:52:17.776Z,3.42
2022-10-15T19:54:44.480Z,3.63
2022-10-15T19:57:11.370Z,3.45
2022-10-15T19:59:38.033Z,3.00
2022-10-15T20:02:04.665Z,3.30
2022-10-15T20:04:31.309Z,3.42
2022-10-15T20:06:57.924Z,3.15
2022-10-15T20:09:24.579Z,3.10
2022-10-15T20:11:51.246Z,4.32
2022-10-15T20:14:17.974Z,3.35
2022-10-15T20:16:44.635Z,4.18
2022-10-15T20:19:12.615Z,4.03
2022-10-15T20:21:39.332Z,4.05
2022-10-15T20:24:06.131Z,4.57
2022-10-15T20:26:33.199Z,6.75
2022-10-15T20:29:00.002Z,4.80
2022-10-15T20:31:32.136Z,5.35
2022-10-15T20:33:59.406Z,9.43
2022-10-15T20:36:27.420Z,8.80
2022-10-15T20:38:55.600Z,12.13
2022-10-15T20:41:22.236Z,15.77
2022-10-15T20:43:54.260Z,13.35
2022-10-15T20:46:58.614Z,13.63
2022-10-15T20:49:30.274Z,13.63
2022-10-15T20:51:57.836Z,14.13
2022-10-15T20:54:24.467Z,15.73
2022-10-15T20:56:51.650Z,13.93
2022-10-15T20:59:18.995Z,14.02
2022-10-15T21:01:45.695Z,13.80
2022-10-15T21:04:12.394Z,14.15
2022-10-15T21:06:39.584Z,13.25
2022-10-15T21:09:06.341Z,14.15
2022-10-15T21:11:33.056Z,12.65
2022-10-15T21:14:00.429Z,14.07
2022-10-15T21:16:28.446Z,14.07
2022-10-15T21:18:55.497Z,13.77
2022-10-15T21:21:22.173Z,14.35
2022-10-15T21:23:48.785Z,14.00
2022-10-15T21:26:17.262Z,14.65
2022-10-15T21:28:44.080Z,15.98
2022-10-15T21:31:16.269Z,14.35
2022-10-15T21:33:43.972Z,15.73
2022-10-15T21:36:14.390Z,13.57
2022-10-15T21:38:41.245Z,14.15
2022-10-15T21:41:08.746Z,14.13
2022-10-15T21:43:35.834Z,14.02
2022-10-15T21:46:11.076Z,14.07
2022-10-15T21:48:38.298Z,13.93
2022-10-15T21:51:08.428Z,14.18
2022-10-15T21:53:36.709Z,14.30
2022-10-15T21:58:32.435Z,14.30
2022-10-15T22:01:07.815Z,14.13
2022-10-15T22:03:34.538Z,14.25
2022-10-15T22:06:01.570Z,15.10
2022-10-15T22:08:28.914Z,13.65
2022-10-15T22:10:55.546Z,14.45
2022-10-15T22:13:22.190Z,15.63
2022-10-15T22:15:48.839Z,15.23
2022-10-15T22:18:15.510Z,14.43
2022-10-15T22:23:13.660Z,15.00
2022-10-15T22:25:41.376Z,14.75
2022-10-15T22:28:08.030Z,14.98
2022-10-15T22:30:35.955Z,14.95
2022-10-15T22:33:02.693Z,14.10
2022-10-15T22:35:29.701Z,14.68
2022-10-15T22:37:58.085Z,14.65
2022-10-15T22:40:24.943Z,13.57
2022-10-15T22:42:51.545Z,14.27
2022-10-15T22:45:18.200Z,13.73
2022-10-15T22:47:44.856Z,12.88
2022-10-15T22:50:11.568Z,13.32
2022-10-15T22:52:38.221Z,13.70
2022-10-15T22:55:05.236Z,11.45
2022-10-15T22:57:31.869Z,12.18
2022-10-15T22:59:59.445Z,12.02
2022-10-15T23:02:26.474Z,12.07
2022-10-15T23:04:53.285Z,12.25
2022-10-15T23:07:19.917Z,11.25
2022-10-15T23:09:46.536Z,11.27
2022-10-15T23:12:13.212Z,11.52
2022-10-15T23:14:39.829Z,10.55
2022-10-15T23:17:06.541Z,10.20
2022-10-15T23:19:33.333Z,9.70
2022-10-15T23:22:02.690Z,9.93
2022-10-15T23:24:30.630Z,9.23
2022-10-15T23:26:57.308Z,9.68
2022-10-15T23:29:25.632Z,8.93
2022-10-15T23:31:52.963Z,9.05
2022-10-15T23:34:24.705Z,8.50
2022-10-15T23:36:52.063Z,8.52
2022-10-15T23:39:21.775Z,8.38
2022-10-15T23:41:49.437Z,8.45
2022-10-15T23:44:16.286Z,8.05
2022-10-15T23:46:43.024Z,7.38
2022-10-15T23:49:09.975Z,8.25
2022-10-15T23:51:36.954Z,7.43
2022-10-15T23:54:08.619Z,8.25
2022-10-15T23:56:35.279Z,9.10
2022-10-15T23:59:01.953Z,8.77
